Buoy 51940

sailwx.info

Track history (hours):
 
Tides and Currents Weather Stations Pressure Air Temp Water Temp Dewpoint Dewpoint Depression Visibility Wind Speed Wind Dir Waves Ship Positions

Drifting buoy 51940

Last reported at 2014-Oct-23 02:59 UTC. Time now 2014-Oct-23 06:01 UTC.
Position N 31°49' E 177°01'.

Water temperature 22.4 ° C

Date/timePositionNaut miles runAvg speedWind from/ knotsBaromVisibWave heightAir tempDewpointWater temp
2014-Oct-23 02:59N 31°49' E 177°01'6128.6 22.4
2014-Oct-23 02:56N 31°53' E 176°55'0 0.0 22.4
2014-Oct-23 01:18N 31°53' E 176°55'0 0.0
2014-Oct-22 23:30N 31°53' E 176°55'0 0.0 22.1
2014-Oct-22 22:42N 31°53' E 176°55'0 0.0 22.1
2014-Oct-22 21:50N 31°53' E 176°55'335.8 22.0
2014-Oct-22 21:45N 31°54' E 176°52'0 0.0 22.0
2014-Oct-22 18:50N 31°54' E 176°52'1 1.1 21.8
2014-Oct-22 17:40N 31°55' E 176°51'0 0.0 21.8
2014-Oct-22 17:11N 31°55' E 176°51'1 1.1 21.8
2014-Oct-22 15:56N 31°56' E 176°50'620.2 21.8
2014-Oct-22 15:38N 32°01' E 176°46'0 0.0 21.8
2014-Oct-22 10:15N 32°01' E 176°46'0 0.0 21.9
2014-Oct-22 09:30N 32°01' E 176°46'5 3.1 22.0
2014-Oct-22 07:46N 32°04' E 176°41'2 0.9 22.0
2014-Oct-22 05:06N 32°05' E 176°38'0 0.0 21.9
2014-Oct-22 03:50N 32°05' E 176°38'0 1.2 21.9
2014-Oct-22 03:33N 32°05' E 176°38'1 9.6 21.9
2014-Oct-22 03:25N 32°06' E 176°37'0 0.0 21.9
2014-Oct-22 03:07N 32°06' E 176°37'3 1.9 21.9
2014-Oct-22 01:29N 32°06' E 176°33'0 0.0 21.9
2014-Oct-21 23:50N 32°06' E 176°33'9 1.6 21.9
2014-Oct-21 17:52N 32°15' E 176°35'0 0.0 22.1
2014-Oct-21 15:46N 32°15' E 176°35'0 0.0 22.1
2014-Oct-21 09:48N 32°15' E 176°35'2 2.6 22.0
2014-Oct-21 08:58N 32°17' E 176°34'0 0.0 22.0
2014-Oct-21 08:10N 32°17' E 176°34'8 2.1 22.0
2014-Oct-21 04:17N 32°25' E 176°30'0 0.0
2014-Oct-21 03:43N 32°25' E 176°30'0 0.0 22.0
2014-Oct-21 03:15N 32°25' E 176°30'0 0.0 21.9
2014-Oct-21 01:39N 32°25' E 176°30'1 0.2
2014-Oct-20 21:45N 32°26' E 176°30'4 4.6 21.5
2014-Oct-20 20:52N 32°29' E 176°31'0 0.0 21.5
2014-Oct-20 18:16N 32°29' E 176°31'2 7.5 21.6
2014-Oct-20 18:04N 32°31' E 176°31'0 0.0 21.6
2014-Oct-20 17:00N 32°31' E 176°31'1 2.0 21.7
2014-Oct-20 16:31N 32°32' E 176°31'0 0.0 21.8
2014-Oct-20 16:20N 32°32' E 176°31'0 0.9 21.8
2014-Oct-20 15:56N 32°32' E 176°31'3 1.6 21.8
2014-Oct-20 14:18N 32°35' E 176°31'5 1.2 21.8
2014-Oct-20 10:09N 32°40' E 176°30'1 1.4 21.9
2014-Oct-20 09:20N 32°41' E 176°29'120.0 21.8
2014-Oct-20 09:18N 32°41' E 176°29'0 0.0 21.8
2014-Oct-20 08:31N 32°41' E 176°29'0 1.0 21.5
2014-Oct-20 08:28N 32°41' E 176°29'3 1.4 21.5
2014-Oct-20 06:15N 32°45' E 176°29'0 0.0 21.4
2014-Oct-20 05:31N 32°45' E 176°29'0 0.0
2014-Oct-20 05:20N 32°45' E 176°29'0 0.0 21.4
2014-Oct-20 04:42N 32°45' E 176°29'1 9.5 21.4
2014-Oct-20 04:36N 32°45' E 176°30'4 1.5 21.4
2014-Oct-20 01:46N 32°50' E 176°30'1 0.6 21.4
2014-Oct-20 00:05N 32°51' E 176°30'0 0.0
2014-Oct-19 22:04N 32°51' E 176°30'1 0.6 21.1
2014-Oct-19 21:15N 32°51' E 176°30'2 0.7 21.0
2014-Oct-19 18:47N 32°53' E 176°31'1 2.0 20.9
2014-Oct-19 18:13N 32°54' E 176°31'0 0.3 20.9
2014-Oct-19 17:17N 32°54' E 176°31'0 1.1 20.9
2014-Oct-19 17:04N 32°54' E 176°31'0 0.5 20.9
2014-Oct-19 16:34N 32°54' E 176°31'0 0.0 20.9
2014-Oct-19 16:33N 32°54' E 176°31'2 4.9 20.9
2014-Oct-19 16:07N 32°56' E 176°32'0 0.1 20.9
2014-Oct-19 14:28N 32°56' E 176°32'427.2 21.0
2014-Oct-19 14:20N 32°59' E 176°33'0 0.0 21.0
2014-Oct-19 10:31N 32°59' E 176°33'017.0 21.1
2014-Oct-19 10:30N 32°60' E 176°33'1 0.4 21.1
2014-Oct-19 08:50N 33°00' E 176°34'0 0.0 21.2
2014-Oct-19 08:48N 33°00' E 176°34'2 0.6 21.2
2014-Oct-19 05:50N 33°02' E 176°34'1 7.3 21.5
2014-Oct-19 05:44N 33°03' E 176°34'1 1.7 21.5
2014-Oct-19 05:04N 33°03' E 176°35'0 0.0 21.6
2014-Oct-19 05:00N 33°03' E 176°35'0 0.0 21.6
2014-Oct-19 04:00N 33°03' E 176°35'0 0.0 21.7
2014-Oct-19 02:01N 33°03' E 176°35'2 1.1 21.9
2014-Oct-19 00:19N 33°05' E 176°37'0 0.0 21.9
2014-Oct-18 22:25N 33°05' E 176°37'0 0.5 22.0
2014-Oct-18 21:34N 33°05' E 176°37'3 1.3 22.1
2014-Oct-18 19:14N 33°06' E 176°40'0 0.0 22.2
2014-Oct-18 18:22N 33°06' E 176°40'1 1.4 22.2
2014-Oct-18 17:42N 33°07' E 176°41'118.0 22.2
2014-Oct-18 17:39N 33°06' E 176°40'1 1.0 22.2
2014-Oct-18 16:45N 33°07' E 176°41'213.5 22.3
2014-Oct-18 16:36N 33°08' E 176°43'0 0.0 22.3
2014-Oct-18 16:15N 33°08' E 176°43'3 1.0
2014-Oct-18 12:57N 33°09' E 176°47'0 0.0
2014-Oct-18 09:59N 33°09' E 176°47'0 0.0 22.5
2014-Oct-18 09:12N 33°09' E 176°47'110.7 22.6
2014-Oct-18 09:09N 33°09' E 176°48'3 3.4 22.6
2014-Oct-18 08:20N 33°10' E 176°51'3 0.6
2014-Oct-18 02:14N 33°11' E 176°54'1 0.5 22.7
2014-Oct-18 00:32N 33°12' E 176°55'249.9 22.7
2014-Oct-18 00:29N 33°12' E 176°58'0 0.0 22.7
2014-Oct-17 23:29N 33°12' E 176°58'0 0.0
2014-Oct-17 22:42N 33°12' E 176°58'0 0.0 22.7
2014-Oct-17 21:55N 33°12' E 176°58'5 5.4 22.7
2014-Oct-17 21:01N 33°13' E 177°04'0 0.0 22.7
2014-Oct-17 18:09N 33°13' E 177°04'2 1.3 22.6
2014-Oct-17 16:56N 33°14' E 177°06'320.3 22.6
2014-Oct-17 16:48N 33°15' E 177°09'0 0.2 22.7
2014-Oct-17 14:53N 33°15' E 177°09'0 5.3 22.7
2014-Oct-17 14:49N 33°15' E 177°09'782.6 22.7
2014-Oct-17 14:44N 33°18' E 177°16'0 0.0 22.7
2014-Oct-17 13:06N 33°18' E 177°16'1 0.2
2014-Oct-17 08:46N 33°18' E 177°17'115.2 22.5
2014-Oct-17 08:41N 33°19' E 177°18'0 0.1
2014-Oct-17 07:54N 33°19' E 177°18'1 1.6 22.5
2014-Oct-17 06:58N 33°19' E 177°20'8 2.8 22.5
2014-Oct-17 04:11N 33°24' E 177°28'0 0.0 22.5
2014-Oct-17 02:45N 33°24' E 177°28'0 0.0 22.3
2014-Oct-17 00:40N 33°24' E 177°28'4 2.3 22.1
2014-Oct-16 23:02N 33°24' E 177°32'2 1.3
2014-Oct-16 21:23N 33°25' E 177°34'0 0.0 21.7
2014-Oct-16 20:33N 33°25' E 177°34'5 0.6 21.7
2014-Oct-16 13:19N 33°28' E 177°39'12 1.1 21.2
2014-Oct-16 03:01N 33°33' E 177°51'3 1.6 21.0
2014-Oct-16 00:55N 33°34' E 177°55'0 0.0 21.0
2014-Oct-16 00:52N 33°34' E 177°55'6 1.8 21.0
2014-Oct-15 21:45N 33°35' E 178°02'3 1.1 20.9
2014-Oct-15 19:10N 33°36' E 178°05'6 3.2 20.9
2014-Oct-15 17:23N 33°40' E 178°10'0 0.0 20.9
2014-Oct-15 15:38N 33°40' E 178°10'1 1.9 20.9
2014-Oct-15 15:14N 33°40' E 178°11'2 9.3 20.9
2014-Oct-15 15:04N 33°42' E 178°12'4 0.8 20.9
2014-Oct-15 10:12N 33°44' E 178°16'2 1.1 21.0
2014-Oct-15 08:32N 33°45' E 178°18'3170.3 21.0
2014-Oct-15 08:31N 33°46' E 178°20'4 0.8 21.0
2014-Oct-15 03:10N 33°48' E 178°25'4115.0 21.2
2014-Oct-15 03:08N 33°51' E 178°28'0 0.0 21.2
2014-Oct-15 01:04N 33°51' E 178°28'4251.3 21.3
2014-Oct-15 01:03N 33°54' E 178°31'1 0.5 21.3
2014-Oct-14 22:09N 33°56' E 178°32'6 7.2 20.9
2014-Oct-14 21:18N 34°02' E 178°33'1 0.1 20.8
2014-Oct-14 17:31N 34°02' E 178°33'1 0.8 20.8
2014-Oct-14 15:47N 34°04' E 178°33'2 3.9 20.8
2014-Oct-14 15:23N 34°05' E 178°33'3 0.7 20.8
2014-Oct-14 10:34N 34°07' E 178°37'0 0.0 20.9
2014-Oct-14 09:48N 34°07' E 178°37'1 1.0 20.9
2014-Oct-14 08:57N 34°07' E 178°37'328.5 20.9
2014-Oct-14 08:50N 34°09' E 178°40'5 6.5 20.9
2014-Oct-14 08:07N 34°14' E 178°42'0 0.0 20.9
2014-Oct-14 05:12N 34°14' E 178°42'0 0.0 21.0
2014-Oct-14 05:04N 34°14' E 178°42'0 0.0 21.0
2014-Oct-14 03:50N 34°14' E 178°42'0 0.0 21.0
2014-Oct-14 03:20N 34°14' E 178°42'2 0.8 21.0
2014-Oct-14 01:15N 34°16' E 178°42'3 1.3 21.0
2014-Oct-13 23:16N 34°18' E 178°43'0 0.0 21.0
2014-Oct-13 22:29N 34°18' E 178°43'0 0.6 20.9
2014-Oct-13 21:39N 34°19' E 178°43'1 0.2 20.9
2014-Oct-13 17:40N 34°19' E 178°43'0 0.0 20.9
2014-Oct-13 16:56N 34°19' E 178°43'0 0.0 20.9
2014-Oct-13 16:01N 34°19' E 178°43'1 2.3 20.9
2014-Oct-13 15:34N 34°19' E 178°44'0 0.0
2014-Oct-13 13:56N 34°19' E 178°44'4 0.9 20.9
2014-Oct-13 09:17N 34°20' E 178°49'0 5.8 20.9
2014-Oct-13 09:12N 34°21' E 178°48'0 0.0 20.9
2014-Oct-13 08:28N 34°21' E 178°48'440.6 20.9
2014-Oct-13 08:22N 34°24' E 178°51'0 0.0 20.9
2014-Oct-13 07:36N 34°24' E 178°51'0 0.0 20.9
2014-Oct-13 05:09N 34°24' E 178°51'0 0.0 20.9
2014-Oct-13 04:15N 34°24' E 178°51'0 0.1 20.9
2014-Oct-13 03:34N 34°24' E 178°51'113.0 20.9
2014-Oct-13 03:31N 34°24' E 178°52'1 2.6 20.9
2014-Oct-13 03:09N 34°24' E 178°50'1 8.2 20.9
2014-Oct-13 03:01N 34°25' E 178°51'   20.9
Track history (hours):
 
Tides and Currents Weather Stations Pressure Air Temp Water Temp Dewpoint Dewpoint Depression Visibility Wind Speed Wind Dir Waves Ship Positions

Drifting buoy 51940

Last reported at 2014-Oct-23 02:59 UTC. Time now 2014-Oct-23 06:01 UTC.
Position N 31°49' E 177°01'.

Water temperature 22.4 ° C

Date/timePositionNaut miles runAvg speedWind from/ knotsBaromVisibWave heightAir tempDewpointWater temp
2014-Oct-23 02:59N 31°49' E 177°01'6128.6 22.4
2014-Oct-23 02:56N 31°53' E 176°55'0 0.0 22.4
2014-Oct-23 01:18N 31°53' E 176°55'0 0.0
2014-Oct-22 23:30N 31°53' E 176°55'0 0.0 22.1
2014-Oct-22 22:42N 31°53' E 176°55'0 0.0 22.1
2014-Oct-22 21:50N 31°53' E 176°55'335.8 22.0
2014-Oct-22 21:45N 31°54' E 176°52'0 0.0 22.0
2014-Oct-22 18:50N 31°54' E 176°52'1 1.1 21.8
2014-Oct-22 17:40N 31°55' E 176°51'0 0.0 21.8
2014-Oct-22 17:11N 31°55' E 176°51'1 1.1 21.8
2014-Oct-22 15:56N 31°56' E 176°50'620.2 21.8
2014-Oct-22 15:38N 32°01' E 176°46'0 0.0 21.8
2014-Oct-22 10:15N 32°01' E 176°46'0 0.0 21.9
2014-Oct-22 09:30N 32°01' E 176°46'5 3.1 22.0
2014-Oct-22 07:46N 32°04' E 176°41'2 0.9 22.0
2014-Oct-22 05:06N 32°05' E 176°38'0 0.0 21.9
2014-Oct-22 03:50N 32°05' E 176°38'0 1.2 21.9
2014-Oct-22 03:33N 32°05' E 176°38'1 9.6 21.9
2014-Oct-22 03:25N 32°06' E 176°37'0 0.0 21.9
2014-Oct-22 03:07N 32°06' E 176°37'3 1.9 21.9
2014-Oct-22 01:29N 32°06' E 176°33'0 0.0 21.9
2014-Oct-21 23:50N 32°06' E 176°33'9 1.6 21.9
2014-Oct-21 17:52N 32°15' E 176°35'0 0.0 22.1
2014-Oct-21 15:46N 32°15' E 176°35'0 0.0 22.1
2014-Oct-21 09:48N 32°15' E 176°35'2 2.6 22.0
2014-Oct-21 08:58N 32°17' E 176°34'0 0.0 22.0
2014-Oct-21 08:10N 32°17' E 176°34'8 2.1 22.0
2014-Oct-21 04:17N 32°25' E 176°30'0 0.0
2014-Oct-21 03:43N 32°25' E 176°30'0 0.0 22.0
2014-Oct-21 03:15N 32°25' E 176°30'0 0.0 21.9
2014-Oct-21 01:39N 32°25' E 176°30'1 0.2
2014-Oct-20 21:45N 32°26' E 176°30'4 4.6 21.5
2014-Oct-20 20:52N 32°29' E 176°31'0 0.0 21.5
2014-Oct-20 18:16N 32°29' E 176°31'2 7.5 21.6
2014-Oct-20 18:04N 32°31' E 176°31'0 0.0 21.6
2014-Oct-20 17:00N 32°31' E 176°31'1 2.0 21.7
2014-Oct-20 16:31N 32°32' E 176°31'0 0.0 21.8
2014-Oct-20 16:20N 32°32' E 176°31'0 0.9 21.8
2014-Oct-20 15:56N 32°32' E 176°31'3 1.6 21.8
2014-Oct-20 14:18N 32°35' E 176°31'5 1.2 21.8
2014-Oct-20 10:09N 32°40' E 176°30'1 1.4 21.9
2014-Oct-20 09:20N 32°41' E 176°29'120.0 21.8
2014-Oct-20 09:18N 32°41' E 176°29'0 0.0 21.8
2014-Oct-20 08:31N 32°41' E 176°29'0 1.0 21.5
2014-Oct-20 08:28N 32°41' E 176°29'3 1.4 21.5
2014-Oct-20 06:15N 32°45' E 176°29'0 0.0 21.4
2014-Oct-20 05:31N 32°45' E 176°29'0 0.0
2014-Oct-20 05:20N 32°45' E 176°29'0 0.0 21.4
2014-Oct-20 04:42N 32°45' E 176°29'1 9.5 21.4
2014-Oct-20 04:36N 32°45' E 176°30'4 1.5 21.4
2014-Oct-20 01:46N 32°50' E 176°30'1 0.6 21.4
2014-Oct-20 00:05N 32°51' E 176°30'0 0.0
2014-Oct-19 22:04N 32°51' E 176°30'1 0.6 21.1
2014-Oct-19 21:15N 32°51' E 176°30'2 0.7 21.0
2014-Oct-19 18:47N 32°53' E 176°31'1 2.0 20.9
2014-Oct-19 18:13N 32°54' E 176°31'0 0.3 20.9
2014-Oct-19 17:17N 32°54' E 176°31'0 1.1 20.9
2014-Oct-19 17:04N 32°54' E 176°31'0 0.5 20.9
2014-Oct-19 16:34N 32°54' E 176°31'0 0.0 20.9
2014-Oct-19 16:33N 32°54' E 176°31'2 4.9 20.9
2014-Oct-19 16:07N 32°56' E 176°32'0 0.1 20.9
2014-Oct-19 14:28N 32°56' E 176°32'427.2 21.0
2014-Oct-19 14:20N 32°59' E 176°33'0 0.0 21.0
2014-Oct-19 10:31N 32°59' E 176°33'017.0 21.1
2014-Oct-19 10:30N 32°60' E 176°33'1 0.4 21.1
2014-Oct-19 08:50N 33°00' E 176°34'0 0.0 21.2
2014-Oct-19 08:48N 33°00' E 176°34'2 0.6 21.2
2014-Oct-19 05:50N 33°02' E 176°34'1 7.3 21.5
2014-Oct-19 05:44N 33°03' E 176°34'1 1.7 21.5
2014-Oct-19 05:04N 33°03' E 176°35'0 0.0 21.6
2014-Oct-19 05:00N 33°03' E 176°35'0 0.0 21.6
2014-Oct-19 04:00N 33°03' E 176°35'0 0.0 21.7
2014-Oct-19 02:01N 33°03' E 176°35'2 1.1 21.9
2014-Oct-19 00:19N 33°05' E 176°37'0 0.0 21.9
2014-Oct-18 22:25N 33°05' E 176°37'0 0.5 22.0
2014-Oct-18 21:34N 33°05' E 176°37'3 1.3 22.1
2014-Oct-18 19:14N 33°06' E 176°40'0 0.0 22.2
2014-Oct-18 18:22N 33°06' E 176°40'1 1.4 22.2
2014-Oct-18 17:42N 33°07' E 176°41'118.0 22.2
2014-Oct-18 17:39N 33°06' E 176°40'1 1.0 22.2
2014-Oct-18 16:45N 33°07' E 176°41'213.5 22.3
2014-Oct-18 16:36N 33°08' E 176°43'0 0.0 22.3
2014-Oct-18 16:15N 33°08' E 176°43'3 1.0
2014-Oct-18 12:57N 33°09' E 176°47'0 0.0
2014-Oct-18 09:59N 33°09' E 176°47'0 0.0 22.5
2014-Oct-18 09:12N 33°09' E 176°47'110.7 22.6
2014-Oct-18 09:09N 33°09' E 176°48'3 3.4 22.6
2014-Oct-18 08:20N 33°10' E 176°51'3 0.6
2014-Oct-18 02:14N 33°11' E 176°54'1 0.5 22.7
2014-Oct-18 00:32N 33°12' E 176°55'249.9 22.7
2014-Oct-18 00:29N 33°12' E 176°58'0 0.0 22.7
2014-Oct-17 23:29N 33°12' E 176°58'0 0.0
2014-Oct-17 22:42N 33°12' E 176°58'0 0.0 22.7
2014-Oct-17 21:55N 33°12' E 176°58'5 5.4 22.7
2014-Oct-17 21:01N 33°13' E 177°04'0 0.0 22.7
2014-Oct-17 18:09N 33°13' E 177°04'2 1.3 22.6
2014-Oct-17 16:56N 33°14' E 177°06'320.3 22.6
2014-Oct-17 16:48N 33°15' E 177°09'0 0.2 22.7
2014-Oct-17 14:53N 33°15' E 177°09'0 5.3 22.7
2014-Oct-17 14:49N 33°15' E 177°09'782.6 22.7
2014-Oct-17 14:44N 33°18' E 177°16'0 0.0 22.7
2014-Oct-17 13:06N 33°18' E 177°16'1 0.2
2014-Oct-17 08:46N 33°18' E 177°17'115.2 22.5
2014-Oct-17 08:41N 33°19' E 177°18'0 0.1
2014-Oct-17 07:54N 33°19' E 177°18'1 1.6 22.5
2014-Oct-17 06:58N 33°19' E 177°20'8 2.8 22.5
2014-Oct-17 04:11N 33°24' E 177°28'0 0.0 22.5
2014-Oct-17 02:45N 33°24' E 177°28'0 0.0 22.3
2014-Oct-17 00:40N 33°24' E 177°28'4 2.3 22.1
2014-Oct-16 23:02N 33°24' E 177°32'2 1.3
2014-Oct-16 21:23N 33°25' E 177°34'0 0.0 21.7
2014-Oct-16 20:33N 33°25' E 177°34'5 0.6 21.7
2014-Oct-16 13:19N 33°28' E 177°39'12 1.1 21.2
2014-Oct-16 03:01N 33°33' E 177°51'3 1.6 21.0
2014-Oct-16 00:55N 33°34' E 177°55'0 0.0 21.0
2014-Oct-16 00:52N 33°34' E 177°55'6 1.8 21.0
2014-Oct-15 21:45N 33°35' E 178°02'3 1.1 20.9
2014-Oct-15 19:10N 33°36' E 178°05'6 3.2 20.9
2014-Oct-15 17:23N 33°40' E 178°10'0 0.0 20.9
2014-Oct-15 15:38N 33°40' E 178°10'1 1.9 20.9
2014-Oct-15 15:14N 33°40' E 178°11'2 9.3 20.9
2014-Oct-15 15:04N 33°42' E 178°12'4 0.8 20.9
2014-Oct-15 10:12N 33°44' E 178°16'2 1.1 21.0
2014-Oct-15 08:32N 33°45' E 178°18'3170.3 21.0
2014-Oct-15 08:31N 33°46' E 178°20'4 0.8 21.0
2014-Oct-15 03:10N 33°48' E 178°25'4115.0 21.2
2014-Oct-15 03:08N 33°51' E 178°28'0 0.0 21.2
2014-Oct-15 01:04N 33°51' E 178°28'4251.3 21.3
2014-Oct-15 01:03N 33°54' E 178°31'1 0.5 21.3
2014-Oct-14 22:09N 33°56' E 178°32'6 7.2 20.9
2014-Oct-14 21:18N 34°02' E 178°33'1 0.1 20.8
2014-Oct-14 17:31N 34°02' E 178°33'1 0.8 20.8
2014-Oct-14 15:47N 34°04' E 178°33'2 3.9 20.8
2014-Oct-14 15:23N 34°05' E 178°33'3 0.7 20.8
2014-Oct-14 10:34N 34°07' E 178°37'0 0.0 20.9
2014-Oct-14 09:48N 34°07' E 178°37'1 1.0 20.9
2014-Oct-14 08:57N 34°07' E 178°37'328.5 20.9
2014-Oct-14 08:50N 34°09' E 178°40'5 6.5 20.9
2014-Oct-14 08:07N 34°14' E 178°42'0 0.0 20.9
2014-Oct-14 05:12N 34°14' E 178°42'0 0.0 21.0
2014-Oct-14 05:04N 34°14' E 178°42'0 0.0 21.0
2014-Oct-14 03:50N 34°14' E 178°42'0 0.0 21.0
2014-Oct-14 03:20N 34°14' E 178°42'2 0.8 21.0
2014-Oct-14 01:15N 34°16' E 178°42'3 1.3 21.0
2014-Oct-13 23:16N 34°18' E 178°43'0 0.0 21.0
2014-Oct-13 22:29N 34°18' E 178°43'0 0.6 20.9
2014-Oct-13 21:39N 34°19' E 178°43'1 0.2 20.9
2014-Oct-13 17:40N 34°19' E 178°43'0 0.0 20.9
2014-Oct-13 16:56N 34°19' E 178°43'0 0.0 20.9
2014-Oct-13 16:01N 34°19' E 178°43'1 2.3 20.9
2014-Oct-13 15:34N 34°19' E 178°44'0 0.0
2014-Oct-13 13:56N 34°19' E 178°44'4 0.9 20.9
2014-Oct-13 09:17N 34°20' E 178°49'0 5.8 20.9
2014-Oct-13 09:12N 34°21' E 178°48'0 0.0 20.9
2014-Oct-13 08:28N 34°21' E 178°48'440.6 20.9
2014-Oct-13 08:22N 34°24' E 178°51'0 0.0 20.9
2014-Oct-13 07:36N 34°24' E 178°51'0 0.0 20.9
2014-Oct-13 05:09N 34°24' E 178°51'0 0.0 20.9
2014-Oct-13 04:15N 34°24' E 178°51'0 0.1 20.9
2014-Oct-13 03:34N 34°24' E 178°51'113.0 20.9
2014-Oct-13 03:31N 34°24' E 178°52'1 2.6 20.9
2014-Oct-13 03:09N 34°24' E 178°50'1 8.2 20.9
2014-Oct-13 03:01N 34°25' E 178°51'   20.9

Dump ship's entire track history